Llangefni, United Kingdom
Current Conditions -  °F | °C
As of 9:50 PM on Thursday 18 Dec 2014 (Local Time) from EGOV Reporting Station
Light Rain Light Rain  
Wind Chill: 50°   Ceiling: 4500
Heat Index: 50°   Visibility: 6mi
Dew Point: 46°   Wind: 22mph
Humidity: 87%   Direction: 270°W
Pressure: 29.65"   Gusts: NA
Location:  53.26°N, 4.31°W
Report Text: EGOV 182150Z 27019KT 9999 -RA FEW010 SCT024 BKN045 10/08 Q1004 WHT
Loading
Personal Weather Stations






























Interactive Weather Map New forecast layout! Learn more

10-Day Weather Forecast

Advertisements
Track Severe Weather on mobile